Tomriz A — TCRB8 — position and weather

sailwx.info

Track history (hours):
 
Tides and Currents Weather Stations Pressure Air Temp Water Temp Dewpoint Dewpoint Depression Visibility Wind Speed Wind Dir Waves Ship Positions

Tomriz A

Last reported at 2017-Sep-24 22:33 UTC. Time now 2017-Sep-26 01:56 UTC.
Position N 43°27' E 028°53'.

Type: Ship (hazmat cat A). MMSI: 27100158.

Date/timePositionNaut miles runAvg speedWind from/ knotsBaromVisibWave heightAir tempDewpointWater temp
2017-Sep-24 22:33N 43°27' E 028°53'215.0
2017-Sep-24 22:27N 43°28' E 028°52'715.1
2017-Sep-24 22:00N 43°35' E 028°52'815.4
2017-Sep-24 21:30N 43°43' E 028°51'815.4
2017-Sep-24 21:00N 43°50' E 028°50'815.1
2017-Sep-24 20:30N 43°58' E 028°49'714.2
2017-Sep-24 20:00N 44°04' E 028°43'3 6.7
2017-Sep-24 19:30N 44°06' E 028°40'1 1.1
2017-Sep-24 19:00N 44°06' E 028°40'0 0.0
2017-Sep-24 18:28N 44°06' E 028°40'0 0.0
2017-Sep-24 17:58N 44°06' E 028°40'0 0.0
2017-Sep-24 17:28N 44°06' E 028°40'0 0.0
2017-Sep-24 16:58N 44°06' E 028°40'0 0.0
2017-Sep-24 16:28N 44°06' E 028°40'0 0.0
2017-Sep-24 15:58N 44°06' E 028°40'0 0.0
2017-Sep-24 15:28N 44°06' E 028°40'0 0.0
2017-Sep-24 14:58N 44°06' E 028°40'0 0.0
2017-Sep-24 14:28N 44°06' E 028°40'0 0.0
2017-Sep-24 13:58N 44°06' E 028°40'0 0.0
2017-Sep-24 13:28N 44°06' E 028°40'0 0.0
2017-Sep-24 12:58N 44°06' E 028°40'0 0.0
2017-Sep-24 12:28N 44°06' E 028°40'0 0.0
2017-Sep-24 11:58N 44°06' E 028°40'0 0.0
2017-Sep-24 11:28N 44°06' E 028°40'0 0.0
2017-Sep-24 10:58N 44°06' E 028°40'0 0.0
2017-Sep-24 10:28N 44°06' E 028°40'0 0.0
2017-Sep-24 09:58N 44°06' E 028°40'0 0.0
2017-Sep-24 09:28N 44°06' E 028°40'0 0.0
2017-Sep-24 08:58N 44°06' E 028°40'0 0.0
2017-Sep-24 08:28N 44°06' E 028°40'0 0.0
2017-Sep-24 07:58N 44°06' E 028°40'0 0.0
2017-Sep-24 07:28N 44°06' E 028°40'0 0.0
2017-Sep-24 06:58N 44°06' E 028°40'0 0.0
2017-Sep-24 06:28N 44°06' E 028°40'0 0.0
2017-Sep-24 05:58N 44°06' E 028°40'0 0.0
2017-Sep-24 05:28N 44°06' E 028°40'0 0.0
2017-Sep-24 04:58N 44°06' E 028°40'0 0.0
2017-Sep-24 04:28N 44°06' E 028°40'0 0.0
2017-Sep-24 03:58N 44°06' E 028°40'0 0.0
2017-Sep-24 03:28N 44°06' E 028°40'0 0.0
2017-Sep-24 02:58N 44°06' E 028°40'0 0.0
2017-Sep-24 02:28N 44°06' E 028°40'0 0.0
2017-Sep-24 01:58N 44°06' E 028°40'0 0.0
2017-Sep-24 01:28N 44°06' E 028°40'0 0.0
2017-Sep-24 00:58N 44°06' E 028°40'0 0.0
2017-Sep-24 00:28N 44°06' E 028°40'0 0.0
2017-Sep-23 23:58N 44°06' E 028°40'0 0.0
2017-Sep-23 23:28N 44°06' E 028°40'0 0.0
2017-Sep-23 23:00N 44°06' E 028°40'1 2.6
2017-Sep-23 22:30N 44°06' E 028°41'3 6.3
2017-Sep-23 22:00N 44°05' E 028°46'2 3.6
2017-Sep-23 21:30N 44°07' E 028°47'2 3.7
2017-Sep-23 20:58N 44°09' E 028°47'0 0.1
2017-Sep-23 20:28N 44°09' E 028°47'0 0.0
2017-Sep-23 19:58N 44°09' E 028°47'  
2017-Sep-21 03:40N 43°09' E 028°02'1 4.9
2017-Sep-21 03:30N 43°09' E 028°02'8012.2
2017-Sep-20 20:57N 41°54' E 028°40'813.8
2017-Sep-20 20:22N 41°48' E 028°46'513.9
2017-Sep-20 20:00N 41°44' E 028°50'714.1
2017-Sep-20 19:30N 41°38' E 028°56'714.5
2017-Sep-20 18:59N 41°32' E 029°03'714.8
2017-Sep-20 18:30N 41°27' E 029°09'37 0.9
2017-Sep-18 23:12N 40°56' E 028°41'1 4.2
2017-Sep-18 23:00N 40°55' E 028°42'0 0.8
2017-Sep-18 22:30N 40°55' E 028°42'0 0.5
2017-Sep-18 22:00N 40°55' E 028°42'0 0.5
2017-Sep-18 21:30N 40°55' E 028°42'0 0.5
2017-Sep-18 20:59N 40°56' E 028°42'1 1.8
2017-Sep-18 20:30N 40°55' E 028°42'611.2
2017-Sep-18 20:00N 40°49' E 028°41'611.1
2017-Sep-18 19:30N 40°44' E 028°41'611.2
2017-Sep-18 19:00N 40°38' E 028°44'510.6
2017-Sep-18 18:30N 40°33' E 028°44'510.8
2017-Sep-18 18:00N 40°28' E 028°46'1 0.0
2017-Sep-18 03:42N 40°27' E 028°46'313.8
2017-Sep-18 03:30N 40°29' E 028°43'714.5
2017-Sep-18 03:00N 40°35' E 028°37'16 0.7
2017-Sep-17 02:27N 40°49' E 028°28'1016.1
2017-Sep-17 01:50N 40°48' E 028°15'716.4
2017-Sep-17 01:27N 40°47' E 028°06'716.1
2017-Sep-17 01:00N 40°46' E 027°57'815.7
2017-Sep-17 00:30N 40°45' E 027°47'815.7
2017-Sep-17 00:00N 40°43' E 027°37'815.5
2017-Sep-16 23:31N 40°39' E 027°28'815.5
2017-Sep-16 23:00N 40°36' E 027°18'815.4
2017-Sep-16 22:30N 40°33' E 027°09'815.4
2017-Sep-16 22:00N 40°30' E 026°60'6512.9
2017-Sep-16 17:00N 39°51' E 025°52'815.5
2017-Sep-16 16:30N 39°45' E 025°47'9216.1
2017-Sep-16 10:47N 38°22' E 024°54'415.9
2017-Sep-16 10:30N 38°18' E 024°52'4315.7
2017-Sep-16 07:47N 37°43' E 024°20'1116.2
2017-Sep-16 07:07N 37°37' E 024°10'216.3
2017-Sep-16 06:59N 37°35' E 024°08'815.9
2017-Sep-16 06:30N 37°33' E 023°59'713.7
2017-Sep-16 06:00N 37°31' E 023°51'1 2.0
2017-Sep-16 05:30N 37°30' E 023°51'0 0.8
2017-Sep-16 05:00N 37°30' E 023°50'0 0.9
2017-Sep-16 04:30N 37°30' E 023°50'0 0.9
2017-Sep-16 04:00N 37°31' E 023°49'1 0.9
2017-Sep-16 03:26N 37°31' E 023°49'1 1.5
2017-Sep-16 03:01N 37°30' E 023°49'2 3.3
2017-Sep-16 02:30N 37°29' E 023°48'0 0.8
2017-Sep-16 02:00N 37°29' E 023°48'0 0.5
2017-Sep-16 01:30N 37°29' E 023°48'0 0.3
2017-Sep-16 01:00N 37°29' E 023°48'0 0.4
2017-Sep-16 00:30N 37°29' E 023°48'0 0.4
2017-Sep-16 00:00N 37°30' E 023°48'0 0.6
2017-Sep-15 23:30N 37°29' E 023°48'1 1.2
2017-Sep-15 23:00N 37°29' E 023°48'4 7.0
2017-Sep-15 22:30N 37°32' E 023°49'1 1.9
2017-Sep-15 22:00N 37°33' E 023°49'0 0.8
2017-Sep-15 21:30N 37°33' E 023°48'0 0.7
2017-Sep-15 20:51N 37°33' E 023°48'1 1.5
2017-Sep-15 20:30N 37°34' E 023°48'3 5.2
2017-Sep-15 20:00N 37°36' E 023°46'510.5
2017-Sep-15 19:30N 37°40' E 023°42'510.7
2017-Sep-15 19:00N 37°45' E 023°39'510.6
2017-Sep-15 18:30N 37°50' E 023°37'510.6
2017-Sep-15 18:00N 37°55' E 023°36'3 5.0
2017-Sep-15 17:30N 37°57' E 023°36'0 0.0
2017-Sep-15 17:00N 37°57' E 023°36'0 0.0
2017-Sep-15 16:30N 37°57' E 023°36'0 0.1
2017-Sep-15 15:58N 37°57' E 023°36'0 0.1
2017-Sep-15 15:28N 37°57' E 023°36'0 0.0
2017-Sep-15 14:58N 37°57' E 023°36'0 0.0
2017-Sep-15 14:28N 37°57' E 023°36'0 0.0
2017-Sep-15 13:58N 37°57' E 023°36'0 0.0
2017-Sep-15 13:28N 37°57' E 023°36'0 0.0
2017-Sep-15 12:58N 37°57' E 023°36'0 0.0
2017-Sep-15 12:28N 37°57' E 023°36'0 0.0
2017-Sep-15 11:58N 37°57' E 023°36'0 0.0
2017-Sep-15 11:28N 37°57' E 023°36'0 0.0
2017-Sep-15 10:58N 37°57' E 023°36'0 0.0
2017-Sep-15 10:28N 37°57' E 023°36'0 0.0
2017-Sep-15 09:58N 37°57' E 023°36'0 0.0
2017-Sep-15 09:28N 37°57' E 023°36'0 0.0
2017-Sep-15 08:58N 37°57' E 023°36'0 0.0
2017-Sep-15 08:25N 37°57' E 023°36'0 0.0
2017-Sep-15 07:58N 37°57' E 023°36'0 0.0
2017-Sep-15 07:28N 37°57' E 023°36'0 0.0
2017-Sep-15 06:58N 37°57' E 023°36'0 0.0
2017-Sep-15 06:28N 37°57' E 023°36'0 0.0
2017-Sep-15 05:58N 37°57' E 023°36'0 0.0
2017-Sep-15 05:28N 37°57' E 023°36'0 0.0
2017-Sep-15 04:58N 37°57' E 023°36'0 0.0
2017-Sep-15 04:28N 37°57' E 023°36'0 0.0
2017-Sep-15 03:58N 37°57' E 023°36'0 0.0
2017-Sep-15 03:28N 37°57' E 023°36'0 0.0
2017-Sep-15 02:58N 37°57' E 023°36'0 0.0
2017-Sep-15 02:28N 37°57' E 023°36'0 0.0
2017-Sep-15 01:55N 37°57' E 023°36'0 0.0
2017-Sep-15 01:28N 37°57' E 023°36'0 0.0
2017-Sep-15 00:58N 37°57' E 023°36'0 0.0
2017-Sep-15 00:28N 37°57' E 023°36'0 0.0
2017-Sep-14 23:58N 37°57' E 023°36'0 0.0
2017-Sep-14 23:25N 37°57' E 023°36'0 0.0
2017-Sep-14 22:58N 37°57' E 023°36'  
Track history (hours):
 
Tides and Currents Weather Stations Pressure Air Temp Water Temp Dewpoint Dewpoint Depression Visibility Wind Speed Wind Dir Waves Ship Positions

Tomriz A

Last reported at 2017-Sep-24 22:33 UTC. Time now 2017-Sep-26 01:56 UTC.
Position N 43°27' E 028°53'.

Type: Ship (hazmat cat A). MMSI: 27100158.

Date/timePositionNaut miles runAvg speedWind from/ knotsBaromVisibWave heightAir tempDewpointWater temp
2017-Sep-24 22:33N 43°27' E 028°53'215.0
2017-Sep-24 22:27N 43°28' E 028°52'715.1
2017-Sep-24 22:00N 43°35' E 028°52'815.4
2017-Sep-24 21:30N 43°43' E 028°51'815.4
2017-Sep-24 21:00N 43°50' E 028°50'815.1
2017-Sep-24 20:30N 43°58' E 028°49'714.2
2017-Sep-24 20:00N 44°04' E 028°43'3 6.7
2017-Sep-24 19:30N 44°06' E 028°40'1 1.1
2017-Sep-24 19:00N 44°06' E 028°40'0 0.0
2017-Sep-24 18:28N 44°06' E 028°40'0 0.0
2017-Sep-24 17:58N 44°06' E 028°40'0 0.0
2017-Sep-24 17:28N 44°06' E 028°40'0 0.0
2017-Sep-24 16:58N 44°06' E 028°40'0 0.0
2017-Sep-24 16:28N 44°06' E 028°40'0 0.0
2017-Sep-24 15:58N 44°06' E 028°40'0 0.0
2017-Sep-24 15:28N 44°06' E 028°40'0 0.0
2017-Sep-24 14:58N 44°06' E 028°40'0 0.0
2017-Sep-24 14:28N 44°06' E 028°40'0 0.0
2017-Sep-24 13:58N 44°06' E 028°40'0 0.0
2017-Sep-24 13:28N 44°06' E 028°40'0 0.0
2017-Sep-24 12:58N 44°06' E 028°40'0 0.0
2017-Sep-24 12:28N 44°06' E 028°40'0 0.0
2017-Sep-24 11:58N 44°06' E 028°40'0 0.0
2017-Sep-24 11:28N 44°06' E 028°40'0 0.0
2017-Sep-24 10:58N 44°06' E 028°40'0 0.0
2017-Sep-24 10:28N 44°06' E 028°40'0 0.0
2017-Sep-24 09:58N 44°06' E 028°40'0 0.0
2017-Sep-24 09:28N 44°06' E 028°40'0 0.0
2017-Sep-24 08:58N 44°06' E 028°40'0 0.0
2017-Sep-24 08:28N 44°06' E 028°40'0 0.0
2017-Sep-24 07:58N 44°06' E 028°40'0 0.0
2017-Sep-24 07:28N 44°06' E 028°40'0 0.0
2017-Sep-24 06:58N 44°06' E 028°40'0 0.0
2017-Sep-24 06:28N 44°06' E 028°40'0 0.0
2017-Sep-24 05:58N 44°06' E 028°40'0 0.0
2017-Sep-24 05:28N 44°06' E 028°40'0 0.0
2017-Sep-24 04:58N 44°06' E 028°40'0 0.0
2017-Sep-24 04:28N 44°06' E 028°40'0 0.0
2017-Sep-24 03:58N 44°06' E 028°40'0 0.0
2017-Sep-24 03:28N 44°06' E 028°40'0 0.0
2017-Sep-24 02:58N 44°06' E 028°40'0 0.0
2017-Sep-24 02:28N 44°06' E 028°40'0 0.0
2017-Sep-24 01:58N 44°06' E 028°40'0 0.0
2017-Sep-24 01:28N 44°06' E 028°40'0 0.0
2017-Sep-24 00:58N 44°06' E 028°40'0 0.0
2017-Sep-24 00:28N 44°06' E 028°40'0 0.0
2017-Sep-23 23:58N 44°06' E 028°40'0 0.0
2017-Sep-23 23:28N 44°06' E 028°40'0 0.0
2017-Sep-23 23:00N 44°06' E 028°40'1 2.6
2017-Sep-23 22:30N 44°06' E 028°41'3 6.3
2017-Sep-23 22:00N 44°05' E 028°46'2 3.6
2017-Sep-23 21:30N 44°07' E 028°47'2 3.7
2017-Sep-23 20:58N 44°09' E 028°47'0 0.1
2017-Sep-23 20:28N 44°09' E 028°47'0 0.0
2017-Sep-23 19:58N 44°09' E 028°47'  
2017-Sep-21 03:40N 43°09' E 028°02'1 4.9
2017-Sep-21 03:30N 43°09' E 028°02'8012.2
2017-Sep-20 20:57N 41°54' E 028°40'813.8
2017-Sep-20 20:22N 41°48' E 028°46'513.9
2017-Sep-20 20:00N 41°44' E 028°50'714.1
2017-Sep-20 19:30N 41°38' E 028°56'714.5
2017-Sep-20 18:59N 41°32' E 029°03'714.8
2017-Sep-20 18:30N 41°27' E 029°09'37 0.9
2017-Sep-18 23:12N 40°56' E 028°41'1 4.2
2017-Sep-18 23:00N 40°55' E 028°42'0 0.8
2017-Sep-18 22:30N 40°55' E 028°42'0 0.5
2017-Sep-18 22:00N 40°55' E 028°42'0 0.5
2017-Sep-18 21:30N 40°55' E 028°42'0 0.5
2017-Sep-18 20:59N 40°56' E 028°42'1 1.8
2017-Sep-18 20:30N 40°55' E 028°42'611.2
2017-Sep-18 20:00N 40°49' E 028°41'611.1
2017-Sep-18 19:30N 40°44' E 028°41'611.2
2017-Sep-18 19:00N 40°38' E 028°44'510.6
2017-Sep-18 18:30N 40°33' E 028°44'510.8
2017-Sep-18 18:00N 40°28' E 028°46'1 0.0
2017-Sep-18 03:42N 40°27' E 028°46'313.8
2017-Sep-18 03:30N 40°29' E 028°43'714.5
2017-Sep-18 03:00N 40°35' E 028°37'16 0.7
2017-Sep-17 02:27N 40°49' E 028°28'1016.1
2017-Sep-17 01:50N 40°48' E 028°15'716.4
2017-Sep-17 01:27N 40°47' E 028°06'716.1
2017-Sep-17 01:00N 40°46' E 027°57'815.7
2017-Sep-17 00:30N 40°45' E 027°47'815.7
2017-Sep-17 00:00N 40°43' E 027°37'815.5
2017-Sep-16 23:31N 40°39' E 027°28'815.5
2017-Sep-16 23:00N 40°36' E 027°18'815.4
2017-Sep-16 22:30N 40°33' E 027°09'815.4
2017-Sep-16 22:00N 40°30' E 026°60'6512.9
2017-Sep-16 17:00N 39°51' E 025°52'815.5
2017-Sep-16 16:30N 39°45' E 025°47'9216.1
2017-Sep-16 10:47N 38°22' E 024°54'415.9
2017-Sep-16 10:30N 38°18' E 024°52'4315.7
2017-Sep-16 07:47N 37°43' E 024°20'1116.2
2017-Sep-16 07:07N 37°37' E 024°10'216.3
2017-Sep-16 06:59N 37°35' E 024°08'815.9
2017-Sep-16 06:30N 37°33' E 023°59'713.7
2017-Sep-16 06:00N 37°31' E 023°51'1 2.0
2017-Sep-16 05:30N 37°30' E 023°51'0 0.8
2017-Sep-16 05:00N 37°30' E 023°50'0 0.9
2017-Sep-16 04:30N 37°30' E 023°50'0 0.9
2017-Sep-16 04:00N 37°31' E 023°49'1 0.9
2017-Sep-16 03:26N 37°31' E 023°49'1 1.5
2017-Sep-16 03:01N 37°30' E 023°49'2 3.3
2017-Sep-16 02:30N 37°29' E 023°48'0 0.8
2017-Sep-16 02:00N 37°29' E 023°48'0 0.5
2017-Sep-16 01:30N 37°29' E 023°48'0 0.3
2017-Sep-16 01:00N 37°29' E 023°48'0 0.4
2017-Sep-16 00:30N 37°29' E 023°48'0 0.4
2017-Sep-16 00:00N 37°30' E 023°48'0 0.6
2017-Sep-15 23:30N 37°29' E 023°48'1 1.2
2017-Sep-15 23:00N 37°29' E 023°48'4 7.0
2017-Sep-15 22:30N 37°32' E 023°49'1 1.9
2017-Sep-15 22:00N 37°33' E 023°49'0 0.8
2017-Sep-15 21:30N 37°33' E 023°48'0 0.7
2017-Sep-15 20:51N 37°33' E 023°48'1 1.5
2017-Sep-15 20:30N 37°34' E 023°48'3 5.2
2017-Sep-15 20:00N 37°36' E 023°46'510.5
2017-Sep-15 19:30N 37°40' E 023°42'510.7
2017-Sep-15 19:00N 37°45' E 023°39'510.6
2017-Sep-15 18:30N 37°50' E 023°37'510.6
2017-Sep-15 18:00N 37°55' E 023°36'3 5.0
2017-Sep-15 17:30N 37°57' E 023°36'0 0.0
2017-Sep-15 17:00N 37°57' E 023°36'0 0.0
2017-Sep-15 16:30N 37°57' E 023°36'0 0.1
2017-Sep-15 15:58N 37°57' E 023°36'0 0.1
2017-Sep-15 15:28N 37°57' E 023°36'0 0.0
2017-Sep-15 14:58N 37°57' E 023°36'0 0.0
2017-Sep-15 14:28N 37°57' E 023°36'0 0.0
2017-Sep-15 13:58N 37°57' E 023°36'0 0.0
2017-Sep-15 13:28N 37°57' E 023°36'0 0.0
2017-Sep-15 12:58N 37°57' E 023°36'0 0.0
2017-Sep-15 12:28N 37°57' E 023°36'0 0.0
2017-Sep-15 11:58N 37°57' E 023°36'0 0.0
2017-Sep-15 11:28N 37°57' E 023°36'0 0.0
2017-Sep-15 10:58N 37°57' E 023°36'0 0.0
2017-Sep-15 10:28N 37°57' E 023°36'0 0.0
2017-Sep-15 09:58N 37°57' E 023°36'0 0.0
2017-Sep-15 09:28N 37°57' E 023°36'0 0.0
2017-Sep-15 08:58N 37°57' E 023°36'0 0.0
2017-Sep-15 08:25N 37°57' E 023°36'0 0.0
2017-Sep-15 07:58N 37°57' E 023°36'0 0.0
2017-Sep-15 07:28N 37°57' E 023°36'0 0.0
2017-Sep-15 06:58N 37°57' E 023°36'0 0.0
2017-Sep-15 06:28N 37°57' E 023°36'0 0.0
2017-Sep-15 05:58N 37°57' E 023°36'0 0.0
2017-Sep-15 05:28N 37°57' E 023°36'0 0.0
2017-Sep-15 04:58N 37°57' E 023°36'0 0.0
2017-Sep-15 04:28N 37°57' E 023°36'0 0.0
2017-Sep-15 03:58N 37°57' E 023°36'0 0.0
2017-Sep-15 03:28N 37°57' E 023°36'0 0.0
2017-Sep-15 02:58N 37°57' E 023°36'0 0.0
2017-Sep-15 02:28N 37°57' E 023°36'0 0.0
2017-Sep-15 01:55N 37°57' E 023°36'0 0.0
2017-Sep-15 01:28N 37°57' E 023°36'0 0.0
2017-Sep-15 00:58N 37°57' E 023°36'0 0.0
2017-Sep-15 00:28N 37°57' E 023°36'0 0.0
2017-Sep-14 23:58N 37°57' E 023°36'0 0.0
2017-Sep-14 23:25N 37°57' E 023°36'0 0.0
2017-Sep-14 22:58N 37°57' E 023°36'  

Dump ship's entire track history